Time;durP1;ratioP1;P1;durP2;ratioP2;P2;SDS_P1;SDS_P2;PMS_P1;PMS_P2;Temp;Humidity;BMP_temperature;BMP_pressure;BME280_temperature;BME280_humidity;BME280_pressure;Samples;Min_cycle;Max_cycle;Signal;HPM_P1;HPM_P2
2022/03/10 00:00:59;;;;;;;19.23;11.43;;;4.70;64.20;;;;;;5051043;28;20044;-71
2022/03/10 00:03:25;;;;;;;16.27;12.10;;;4.60;64.90;;;;;;5052148;28;20045;-71
2022/03/10 00:05:50;;;;;;;17.90;10.77;;;4.50;64.90;;;;;;5050342;28;20045;-71
2022/03/10 00:08:16;;;;;;;20.40;13.27;;;4.50;65.40;;;;;;5050587;28;20044;-71
2022/03/10 00:10:41;;;;;;;17.58;12.18;;;4.50;65.80;;;;;;5051959;28;20067;-71
2022/03/10 00:13:07;;;;;;;21.15;12.65;;;4.40;66.40;;;;;;5051780;28;20445;-72
2022/03/10 00:15:32;;;;;;;18.05;12.95;;;4.40;66.50;;;;;;5051570;28;20076;-71
2022/03/10 00:18:02;;;;;;;18.25;11.98;;;4.30;67.10;;;;;;5051782;28;20036;-71
2022/03/10 00:20:28;;;;;;;16.67;11.85;;;4.30;67.20;;;;;;5051894;28;20074;-71
2022/03/10 00:22:55;;;;;;;19.00;12.32;;;4.30;67.20;;;;;;5050503;28;20484;-71
2022/03/10 00:25:21;;;;;;;20.73;12.85;;;4.20;67.30;;;;;;5050177;28;20041;-71
2022/03/10 00:27:48;;;;;;;19.23;11.48;;;4.20;67.10;;;;;;5050286;28;20090;-71
2022/03/10 00:30:14;;;;;;;18.15;12.20;;;4.20;67.10;;;;;;5051840;28;20036;-71
2022/03/10 00:32:41;;;;;;;16.70;12.02;;;4.20;66.90;;;;;;5051887;28;20043;-71
2022/03/10 00:35:07;;;;;;;20.40;11.82;;;4.20;66.50;;;;;;5050534;28;20469;-71
2022/03/10 00:37:33;;;;;;;18.75;12.50;;;4.20;66.40;;;;;;5051350;28;20073;-71
2022/03/10 00:39:58;;;;;;;18.48;11.38;;;4.30;66.40;;;;;;5051585;28;20044;-71
2022/03/10 00:42:23;;;;;;;20.27;11.75;;;4.30;66.10;;;;;;5050170;28;20449;-71
2022/03/10 00:44:49;;;;;;;19.45;12.52;;;4.30;66.30;;;;;;5051389;28;20037;-71
2022/03/10 00:47:15;;;;;;;19.83;12.52;;;4.30;66.10;;;;;;5051123;28;20033;-71
2022/03/10 00:49:41;;;;;;;19.30;12.10;;;4.20;66.30;;;;;;5050149;28;20094;-71
2022/03/10 00:52:06;;;;;;;15.63;10.98;;;4.20;66.40;;;;;;5050076;28;20116;-71
2022/03/10 00:54:32;;;;;;;21.90;12.73;;;4.20;66.50;;;;;;5050143;28;20033;-71
2022/03/10 00:56:58;;;;;;;20.45;12.10;;;4.20;66.70;;;;;;5049595;28;20045;-71
2022/03/10 00:59:23;;;;;;;18.45;12.32;;;4.20;66.80;;;;;;5051330;28;20041;-71
2022/03/10 01:01:49;;;;;;;18.33;12.63;;;4.20;66.90;;;;;;5051549;28;20402;-71
2022/03/10 01:04:14;;;;;;;19.33;13.23;;;4.10;67.00;;;;;;5051200;28;20486;-71
2022/03/10 01:06:40;;;;;;;20.77;12.07;;;4.10;67.20;;;;;;5049627;28;20045;-71
2022/03/10 01:09:06;;;;;;;19.98;13.07;;;4.00;67.50;;;;;;5051307;28;20037;-71
2022/03/10 01:11:33;;;;;;;18.30;11.88;;;4.00;67.80;;;;;;5049921;28;20041;-71
2022/03/10 01:13:58;;;;;;;17.70;11.25;;;4.00;67.90;;;;;;5050270;28;20096;-71
2022/03/10 01:16:24;;;;;;;18.15;11.85;;;3.90;67.90;;;;;;5053494;28;20095;-71
2022/03/10 01:18:49;;;;;;;22.55;13.30;;;3.90;68.20;;;;;;5054005;28;20037;-71
2022/03/10 01:21:15;;;;;;;17.25;12.15;;;3.90;68.40;;;;;;5055017;28;20083;-71
2022/03/10 01:23:40;;;;;;;19.63;12.23;;;3.90;68.10;;;;;;5053748;28;20041;-71
2022/03/10 01:26:06;;;;;;;21.00;11.68;;;3.80;68.10;;;;;;5053159;28;20037;-71
2022/03/10 01:28:32;;;;;;;19.48;12.45;;;3.80;68.00;;;;;;5053905;28;20040;-71
2022/03/10 01:30:57;;;;;;;19.90;11.38;;;3.80;68.10;;;;;;5053595;28;20044;-71
2022/03/10 01:33:23;;;;;;;18.95;13.15;;;3.80;68.40;;;;;;5053658;28;20033;-72
2022/03/10 01:35:48;;;;;;;21.02;12.43;;;3.80;68.30;;;;;;5054464;28;20051;-73
2022/03/10 01:38:14;;;;;;;18.50;11.50;;;3.70;68.50;;;;;;5054899;28;20041;-72
2022/03/10 01:40:39;;;;;;;19.15;12.75;;;3.70;68.70;;;;;;5053967;28;20044;-71
2022/03/10 01:43:05;;;;;;;20.98;12.38;;;3.70;69.10;;;;;;5053781;28;20051;-72
2022/03/10 01:45:31;;;;;;;25.40;13.65;;;3.60;69.00;;;;;;5053094;28;20567;-71
2022/03/10 01:47:56;;;;;;;23.15;13.90;;;3.70;69.30;;;;;;5053132;28;20383;-71
2022/03/10 01:50:22;;;;;;;22.80;13.23;;;3.70;68.90;;;;;;5053632;28;20120;-71
2022/03/10 01:52:48;;;;;;;18.17;12.15;;;3.70;68.60;;;;;;5053221;28;20510;-71
2022/03/10 01:55:14;;;;;;;19.80;12.10;;;3.70;68.60;;;;;;5054202;28;20037;-71
2022/03/10 01:57:42;;;;;;;22.27;12.30;;;3.80;68.50;;;;;;5053257;28;20489;-71
2022/03/10 02:00:08;;;;;;;20.45;13.30;;;3.80;68.50;;;;;;5053245;28;20094;-71
2022/03/10 02:02:34;;;;;;;23.45;13.50;;;3.80;68.30;;;;;;5036615;28;20041;-71
2022/03/10 02:04:59;;;;;;;17.83;11.25;;;3.70;68.40;;;;;;5052913;28;20044;-71
2022/03/10 02:10:18;;;;;;;20.13;13.13;;;3.70;68.20;;;;;;5053155;28;20123;-71
2022/03/10 02:12:49;;;;;;;23.90;13.43;;;3.70;68.40;;;;;;5054275;28;20044;-72
2022/03/10 02:18:07;;;;;;;19.80;12.90;;;3.70;68.60;;;;;;5053846;28;20166;-72
2022/03/10 02:20:34;;;;;;;20.75;13.00;;;3.60;69.10;;;;;;5052667;28;20041;-72
2022/03/10 02:23:00;;;;;;;20.23;12.38;;;3.60;69.10;;;;;;5052661;28;20040;-72
2022/03/10 02:25:27;;;;;;;19.60;12.63;;;3.60;69.30;;;;;;5052181;28;20505;-71
2022/03/10 02:27:54;;;;;;;20.27;12.98;;;3.60;69.60;;;;;;5052771;28;20419;-72
2022/03/10 02:30:22;;;;;;;23.77;13.07;;;3.50;69.70;;;;;;5053783;28;20033;-71
2022/03/10 02:32:48;;;;;;;21.50;12.25;;;3.50;70.10;;;;;;5052502;28;20037;-72
2022/03/10 02:35:15;;;;;;;21.73;13.18;;;3.50;70.30;;;;;;5052368;28;20048;-71
2022/03/10 02:37:41;;;;;;;22.20;13.10;;;3.50;70.90;;;;;;5052203;28;20041;-72
2022/03/10 02:40:07;;;;;;;21.73;13.27;;;3.40;71.10;;;;;;5052332;28;20395;-71
2022/03/10 02:42:34;;;;;;;22.48;12.73;;;3.40;71.50;;;;;;5052224;28;20049;-71
2022/03/10 02:45:00;;;;;;;18.40;13.00;;;3.40;71.90;;;;;;5052274;28;20167;-71
2022/03/10 02:47:26;;;;;;;24.73;14.10;;;3.30;72.20;;;;;;5051842;28;20037;-71
2022/03/10 02:49:51;;;;;;;22.38;13.65;;;3.30;72.40;;;;;;5053594;28;20559;-71
2022/03/10 02:52:17;;;;;;;24.73;13.85;;;3.20;72.50;;;;;;5052326;28;20043;-71
2022/03/10 02:54:44;;;;;;;24.08;13.35;;;3.20;72.90;;;;;;5053454;28;20517;-72
2022/03/10 02:57:10;;;;;;;23.67;12.63;;;3.10;73.00;;;;;;5051907;28;20384;-72
2022/03/10 02:59:35;;;;;;;18.67;12.65;;;3.10;73.70;;;;;;5052213;28;20044;-71
2022/03/10 03:02:02;;;;;;;24.73;12.80;;;3.10;73.60;;;;;;5035182;28;20568;-71
2022/03/10 03:04:28;;;;;;;20.20;12.00;;;3.10;73.50;;;;;;5051726;28;20079;-71
2022/03/10 03:06:53;;;;;;;22.48;12.43;;;3.10;73.50;;;;;;5052959;28;20065;-71
2022/03/10 03:09:19;;;;;;;21.02;11.77;;;3.10;73.60;;;;;;5052019;28;20437;-71
2022/03/10 03:11:44;;;;;;;21.02;12.35;;;3.10;73.40;;;;;;5051772;28;20037;-71
2022/03/10 03:14:10;;;;;;;18.77;12.23;;;3.10;73.80;;;;;;5051732;28;20041;-71
2022/03/10 03:16:35;;;;;;;20.67;12.20;;;3.10;73.90;;;;;;5051107;28;20084;-71
2022/03/10 03:19:01;;;;;;;21.35;13.38;;;3.10;74.30;;;;;;5051612;28;20080;-71
2022/03/10 03:21:27;;;;;;;19.80;12.32;;;3.00;74.60;;;;;;5051447;28;20063;-71
2022/03/10 03:23:52;;;;;;;20.55;13.65;;;3.00;74.80;;;;;;5051484;28;20045;-71
2022/03/10 03:26:18;;;;;;;20.83;12.60;;;3.00;74.70;;;;;;5050981;28;20076;-71
2022/03/10 03:28:44;;;;;;;20.83;12.82;;;2.90;74.60;;;;;;5052710;28;20102;-71
2022/03/10 03:31:10;;;;;;;17.35;12.07;;;2.80;75.00;;;;;;5051185;28;20048;-71
2022/03/10 03:33:37;;;;;;;21.77;12.38;;;2.80;75.30;;;;;;5051648;28;20036;-71
2022/03/10 03:36:03;;;;;;;18.38;11.45;;;2.80;75.30;;;;;;5052212;28;20051;-71
2022/03/10 03:38:29;;;;;;;22.27;12.43;;;2.80;75.00;;;;;;5052310;28;20041;-71
2022/03/10 03:40:55;;;;;;;17.25;12.00;;;2.90;74.70;;;;;;5051437;28;20044;-71
2022/03/10 03:43:20;;;;;;;22.35;12.95;;;2.90;74.60;;;;;;5051091;28;20048;-71
2022/03/10 03:45:46;;;;;;;19.45;12.15;;;2.80;74.00;;;;;;5050525;28;20120;-71
2022/03/10 03:48:11;;;;;;;18.40;11.57;;;2.90;74.00;;;;;;5051059;28;20190;-71
2022/03/10 03:50:37;;;;;;;19.23;12.00;;;2.90;73.70;;;;;;5052464;28;20569;-71
2022/03/10 03:53:02;;;;;;;17.08;11.88;;;2.90;73.60;;;;;;5052233;28;20041;-71
2022/03/10 03:55:28;;;;;;;19.00;11.57;;;2.90;73.70;;;;;;5050644;28;20460;-71
2022/03/10 03:57:53;;;;;;;19.92;11.55;;;2.90;73.90;;;;;;5050826;28;20123;-71
2022/03/10 04:00:19;;;;;;;19.48;12.20;;;2.90;73.60;;;;;;5050666;28;20444;-71
2022/03/10 04:02:48;;;;;;;19.33;11.80;;;2.90;73.60;;;;;;5050888;28;20045;-71
2022/03/10 04:05:13;;;;;;;19.63;13.23;;;2.80;73.60;;;;;;5050468;28;20037;-71
2022/03/10 04:07:39;;;;;;;17.65;10.90;;;2.80;73.80;;;;;;5050773;28;20090;-71
2022/03/10 04:10:07;;;;;;;20.65;12.23;;;2.80;74.00;;;;;;5051972;28;20490;-71
2022/03/10 04:12:33;;;;;;;18.85;11.98;;;2.90;74.50;;;;;;5050867;28;20090;-71
2022/03/10 04:14:59;;;;;;;18.15;12.35;;;2.80;75.50;;;;;;5051603;28;20041;-72
2022/03/10 04:17:25;;;;;;;22.13;12.75;;;2.70;76.30;;;;;;5050266;28;20044;-71
2022/03/10 04:19:51;;;;;;;17.50;12.07;;;2.70;77.20;;;;;;5051956;28;20033;-71
2022/03/10 04:22:16;;;;;;;21.83;13.15;;;2.60;77.10;;;;;;5050721;28;20071;-71
2022/03/10 04:24:42;;;;;;;21.48;12.15;;;2.60;77.50;;;;;;5051557;28;20402;-71
2022/03/10 04:27:08;;;;;;;16.98;11.73;;;2.60;78.10;;;;;;5049974;28;20068;-71
2022/03/10 04:29:34;;;;;;;20.58;12.18;;;2.50;78.30;;;;;;5051452;28;20045;-71
2022/03/10 04:31:59;;;;;;;20.55;12.65;;;2.50;78.20;;;;;;5050289;28;20041;-71
2022/03/10 04:34:25;;;;;;;21.67;12.48;;;2.40;78.50;;;;;;5052340;28;20035;-71
2022/03/10 04:36:50;;;;;;;20.02;12.02;;;2.50;78.30;;;;;;5061485;28;20112;-71
2022/03/10 04:39:16;;;;;;;20.73;12.90;;;2.40;77.60;;;;;;5071491;28;20032;-72
2022/03/10 04:41:43;;;;;;;24.35;12.70;;;2.50;77.70;;;;;;5071735;28;20047;-72
2022/03/10 04:44:10;;;;;;;22.42;11.88;;;2.50;77.60;;;;;;5070120;28;20036;-71
2022/03/10 04:46:36;;;;;;;18.65;11.60;;;2.50;77.20;;;;;;5064104;28;20049;-71
2022/03/10 04:49:02;;;;;;;21.02;11.60;;;2.60;77.10;;;;;;5059429;28;20048;-71
2022/03/10 04:51:28;;;;;;;20.75;11.77;;;2.60;77.10;;;;;;5074226;28;20047;-71
2022/03/10 04:53:54;;;;;;;19.20;11.63;;;2.60;77.10;;;;;;5091129;28;20040;-71
2022/03/10 04:56:20;;;;;;;20.00;11.93;;;2.60;77.40;;;;;;5073817;28;20045;-71
2022/03/10 04:58:45;;;;;;;17.23;11.15;;;2.60;78.30;;;;;;5075591;28;20040;-71
2022/03/10 05:01:12;;;;;;;21.98;12.52;;;2.50;78.80;;;;;;5074149;28;20406;-70
2022/03/10 05:03:38;;;;;;;19.25;12.05;;;2.50;78.60;;;;;;5074112;28;20087;-70
2022/03/10 05:06:03;;;;;;;20.30;12.73;;;2.50;78.70;;;;;;5074922;28;20512;-72
2022/03/10 05:08:29;;;;;;;19.50;12.07;;;2.50;79.30;;;;;;5074122;28;20039;-70
2022/03/10 05:10:55;;;;;;;20.48;13.93;;;2.40;79.40;;;;;;5074363;28;20074;-70
2022/03/10 05:13:20;;;;;;;23.33;12.23;;;2.40;79.60;;;;;;5091225;28;20560;-70
2022/03/10 05:15:46;;;;;;;17.55;11.85;;;2.40;80.00;;;;;;5075041;28;20044;-70
2022/03/10 05:18:11;;;;;;;20.95;12.25;;;2.30;80.00;;;;;;5073702;28;20044;-70
2022/03/10 05:20:37;;;;;;;19.02;11.60;;;2.30;80.00;;;;;;5075204;28;20111;-70
2022/03/10 05:23:04;;;;;;;19.17;11.75;;;2.30;79.70;;;;;;5073751;28;20409;-70
2022/03/10 05:25:38;;;;;;;18.13;11.95;;;2.40;79.00;;;;;;5073326;28;20040;-71
2022/03/10 05:28:04;;;;;;;;;;;2.40;78.90;;;;;;5075486;28;20071;-71
2022/03/10 05:30:30;;;;;;;17.85;10.88;;;2.40;78.20;;;;;;5074963;28;20408;-71
2022/03/10 05:32:55;;;;;;;18.77;11.23;;;2.40;78.00;;;;;;5075031;28;20044;-71
2022/03/10 05:35:21;;;;;;;19.88;11.95;;;2.40;77.80;;;;;;5074808;28;20037;-71
2022/03/10 05:37:48;;;;;;;17.65;12.18;;;2.50;77.60;;;;;;5073401;28;20040;-71
2022/03/10 05:40:18;;;;;;;18.20;10.88;;;2.50;77.50;;;;;;5073345;28;20040;-71
2022/03/10 05:42:45;;;;;;;20.83;12.23;;;2.50;77.40;;;;;;5073574;28;20375;-71
2022/03/10 05:45:12;;;;;;;17.42;11.52;;;2.40;77.30;;;;;;5073234;28;20450;-71
2022/03/10 05:47:39;;;;;;;19.83;12.30;;;2.50;77.40;;;;;;5074286;28;20525;-71
2022/03/10 05:50:06;;;;;;;17.65;11.65;;;2.50;77.40;;;;;;5073359;28;20040;-71
2022/03/10 05:52:31;;;;;;;17.80;11.57;;;2.50;77.30;;;;;;5073336;28;20072;-72
2022/03/10 05:54:57;;;;;;;17.55;11.20;;;2.50;77.40;;;;;;5072887;28;20076;-71
2022/03/10 05:57:23;;;;;;;17.92;11.85;;;2.50;77.50;;;;;;5073076;28;20116;-69
2022/03/10 05:59:52;;;;;;;22.30;11.95;;;2.50;78.30;;;;;;5073086;28;20041;-70
2022/03/10 06:02:18;;;;;;;18.90;12.55;;;2.50;77.60;;;;;;5073142;28;20102;-70
2022/03/10 06:04:44;;;;;;;24.73;11.40;;;2.50;77.50;;;;;;5073014;28;20040;-70
2022/03/10 06:07:10;;;;;;;21.38;12.02;;;2.50;77.30;;;;;;5073921;28;20036;-70
2022/03/10 06:09:36;;;;;;;19.55;12.35;;;2.60;77.20;;;;;;5072851;28;20037;-70
2022/03/10 06:12:01;;;;;;;18.80;12.70;;;2.60;76.90;;;;;;5072753;28;20037;-70
2022/03/10 06:14:27;;;;;;;20.83;12.82;;;2.60;76.80;;;;;;5074253;28;20040;-71
2022/03/10 06:16:53;;;;;;;20.23;13.60;;;2.70;76.70;;;;;;5072385;28;20036;-70
2022/03/10 06:19:19;;;;;;;22.65;12.35;;;2.70;77.00;;;;;;5072731;28;20044;-70
2022/03/10 06:21:45;;;;;;;23.92;13.18;;;2.70;76.80;;;;;;5073946;28;20519;-70
2022/03/10 06:24:10;;;;;;;18.48;11.63;;;2.70;76.90;;;;;;5072567;28;20071;-70
2022/03/10 06:26:36;;;;;;;22.10;11.98;;;2.70;76.90;;;;;;5073275;28;20047;-70
2022/03/10 06:29:04;;;;;;;22.60;12.82;;;2.70;77.00;;;;;;5072519;28;20076;-70
2022/03/10 06:31:30;;;;;;;19.70;11.40;;;2.70;77.00;;;;;;5072534;28;20063;-70
2022/03/10 06:33:55;;;;;;;16.48;11.82;;;2.70;77.10;;;;;;5072484;28;20040;-70
2022/03/10 06:36:21;;;;;;;22.15;12.80;;;2.70;77.00;;;;;;5071976;28;20094;-70
2022/03/10 06:38:46;;;;;;;20.30;12.45;;;2.70;76.80;;;;;;5073527;28;20048;-70
2022/03/10 06:41:12;;;;;;;25.60;16.23;;;2.80;76.70;;;;;;5072402;28;20040;-70
2022/03/10 06:43:37;;;;;;;21.13;13.40;;;2.80;76.60;;;;;;5073637;28;20383;-70
2022/03/10 06:46:04;;;;;;;19.98;11.40;;;2.90;76.10;;;;;;5071642;28;20123;-70
2022/03/10 06:48:29;;;;;;;23.63;12.95;;;3.00;75.80;;;;;;5073467;28;20494;-70
2022/03/10 06:50:55;;;;;;;20.75;12.82;;;3.10;75.60;;;;;;5072292;28;20089;-70
2022/03/10 06:53:21;;;;;;;20.02;12.20;;;3.20;75.30;;;;;;5071991;28;20486;-70
2022/03/10 06:55:46;;;;;;;21.70;12.60;;;3.30;74.80;;;;;;5071686;28;20181;-70
2022/03/10 06:58:12;;;;;;;19.90;12.00;;;3.40;74.10;;;;;;5073119;28;20033;-70
2022/03/10 07:00:37;;;;;;;20.48;13.02;;;3.50;73.90;;;;;;5073196;28;20037;-71
2022/03/10 07:03:03;;;;;;;22.60;14.23;;;3.60;73.60;;;;;;5073162;28;20033;-70
2022/03/10 07:05:29;;;;;;;21.27;12.85;;;3.80;72.90;;;;;;5072776;28;20070;-70
2022/03/10 07:07:55;;;;;;;24.30;13.10;;;4.00;72.20;;;;;;5071631;28;20071;-70
2022/03/10 07:10:20;;;;;;;20.38;12.85;;;4.20;71.60;;;;;;5073225;28;20035;-70
2022/03/10 07:12:46;;;;;;;22.45;12.65;;;4.30;70.90;;;;;;5072430;28;20501;-70
2022/03/10 07:15:12;;;;;;;22.98;13.93;;;4.40;70.60;;;;;;5072936;28;20050;-70
2022/03/10 07:17:42;;;;;;;21.13;13.02;;;4.60;70.20;;;;;;5071454;28;20045;-70
2022/03/10 07:20:09;;;;;;;22.92;13.40;;;4.70;69.70;;;;;;5073355;28;20082;-71
2022/03/10 07:22:35;;;;;;;25.35;13.35;;;4.90;69.10;;;;;;5073169;28;20484;-70
2022/03/10 07:25:01;;;;;;;22.63;14.00;;;5.00;69.10;;;;;;5071509;28;20051;-70
2022/03/10 07:27:26;;;;;;;24.40;12.65;;;5.20;68.60;;;;;;5072566;28;20036;-71
2022/03/10 07:29:52;;;;;;;21.15;12.32;;;5.30;68.10;;;;;;5072724;28;20076;-70
2022/03/10 07:32:18;;;;;;;23.17;14.18;;;5.40;68.00;;;;;;5071631;28;20040;-70
2022/03/10 07:34:47;;;;;;;24.02;13.30;;;5.60;67.70;;;;;;5072618;28;20094;-71
2022/03/10 07:37:14;;;;;;;26.60;14.23;;;5.60;67.80;;;;;;5070869;28;20049;-71
2022/03/10 07:39:40;;;;;;;19.38;13.90;;;5.70;67.80;;;;;;5072682;28;20103;-71
2022/03/10 07:42:06;;;;;;;18.98;12.32;;;5.70;68.10;;;;;;5071543;28;20158;-72
2022/03/10 07:44:31;;;;;;;21.02;12.88;;;5.70;68.70;;;;;;5072740;28;20509;-71
2022/03/10 07:46:57;;;;;;;21.52;13.52;;;5.80;69.00;;;;;;5073495;28;20401;-71
2022/03/10 07:49:23;;;;;;;19.00;12.45;;;5.90;68.80;;;;;;5065537;28;20397;-71
2022/03/10 07:51:48;;;;;;;22.02;12.45;;;6.10;68.70;;;;;;5052069;28;20037;-71
2022/03/10 07:54:14;;;;;;;20.23;12.45;;;6.20;68.70;;;;;;5051076;28;20043;-71
2022/03/10 07:56:40;;;;;;;16.58;13.00;;;6.30;68.50;;;;;;5051936;28;20137;-71
2022/03/10 07:59:05;;;;;;;19.70;12.25;;;6.50;68.30;;;;;;5052305;28;20060;-71
2022/03/10 08:01:31;;;;;;;18.63;12.00;;;6.60;67.70;;;;;;5050998;28;20045;-71
2022/03/10 08:03:57;;;;;;;24.55;13.57;;;6.70;67.50;;;;;;5052082;28;20033;-71
2022/03/10 08:06:24;;;;;;;19.67;13.43;;;6.80;67.30;;;;;;5052860;28;20069;-71
2022/03/10 08:08:50;;;;;;;26.55;13.40;;;6.90;67.00;;;;;;5053288;28;20072;-71
2022/03/10 08:11:15;;;;;;;21.30;12.95;;;7.00;66.10;;;;;;5054026;28;20426;-71
2022/03/10 08:13:41;;;;;;;20.67;14.05;;;6.90;65.90;;;;;;5052737;28;20033;-70
2022/03/10 08:16:06;;;;;;;21.83;12.93;;;7.00;65.60;;;;;;5052078;28;20044;-71
2022/03/10 08:18:32;;;;;;;19.55;13.23;;;7.00;65.30;;;;;;5050669;28;20039;-72
2022/03/10 08:20:58;;;;;;;16.48;11.98;;;7.20;65.40;;;;;;5050727;28;20070;-71
2022/03/10 08:23:24;;;;;;;18.02;11.93;;;7.20;65.00;;;;;;5050634;28;20041;-70
2022/03/10 08:25:50;;;;;;;22.88;13.45;;;7.30;65.30;;;;;;5049384;28;20518;-71
2022/03/10 08:28:16;;;;;;;20.40;14.35;;;7.50;65.60;;;;;;5051813;28;20032;-71
2022/03/10 08:30:42;;;;;;;19.75;13.27;;;7.50;65.30;;;;;;5051729;28;20041;-71
2022/03/10 08:33:08;;;;;;;22.58;12.38;;;7.60;65.30;;;;;;5051552;28;20041;-71
2022/03/10 08:35:34;;;;;;;20.95;13.05;;;7.70;65.30;;;;;;5033707;28;20075;-69
2022/03/10 08:37:59;;;;;;;29.85;14.00;;;7.70;65.50;;;;;;5050286;28;20491;-70
2022/03/10 08:40:25;;;;;;;26.95;13.77;;;8.00;65.30;;;;;;5050241;28;20055;-71
2022/03/10 08:42:51;;;;;;;18.67;12.73;;;8.00;65.00;;;;;;5050372;28;20048;-70
2022/03/10 08:45:18;;;;;;;22.20;12.68;;;8.20;65.20;;;;;;5051203;28;20041;-72
2022/03/10 08:47:44;;;;;;;25.02;14.88;;;8.30;65.30;;;;;;5050435;28;20064;-71
2022/03/10 08:50:11;;;;;;;24.63;14.13;;;8.40;65.10;;;;;;5051261;28;20593;-71
2022/03/10 08:52:36;;;;;;;21.30;13.65;;;8.60;64.80;;;;;;5050141;28;20056;-71
2022/03/10 08:55:03;;;;;;;20.20;13.45;;;8.70;64.30;;;;;;5050397;28;20379;-71
2022/03/10 08:57:29;;;;;;;21.27;13.98;;;8.80;64.20;;;;;;5049868;28;20041;-71
2022/03/10 08:59:54;;;;;;;21.77;13.27;;;8.80;64.00;;;;;;5051451;28;20430;-71
2022/03/10 09:02:20;;;;;;;19.80;13.20;;;8.90;63.50;;;;;;5051437;28;20500;-74
2022/03/10 09:04:45;;;;;;;24.65;14.05;;;9.00;63.40;;;;;;5033004;28;20513;-71
2022/03/10 09:07:11;;;;;;;17.75;12.30;;;9.10;63.60;;;;;;5049848;28;20033;-71
2022/03/10 09:09:37;;;;;;;21.73;14.30;;;9.10;63.80;;;;;;5051304;28;20087;-73
2022/03/10 09:12:02;;;;;;;18.85;12.82;;;9.20;63.80;;;;;;5049310;28;20037;-72
2022/03/10 09:14:28;;;;;;;20.42;12.90;;;9.20;64.00;;;;;;5049521;28;20118;-73
2022/03/10 09:16:54;;;;;;;18.88;12.93;;;9.40;63.90;;;;;;5049001;28;20033;-73
2022/03/10 09:19:20;;;;;;;22.52;14.02;;;9.40;63.80;;;;;;5033264;28;20075;-73
2022/03/10 09:21:46;;;;;;;21.50;13.30;;;9.40;63.70;;;;;;5049983;28;20040;-73
2022/03/10 09:24:12;;;;;;;19.98;12.90;;;9.40;63.50;;;;;;5050006;28;20055;-74
2022/03/10 09:26:38;;;;;;;21.90;13.63;;;9.40;63.70;;;;;;5050819;28;20052;-74
2022/03/10 09:29:04;;;;;;;21.48;13.18;;;9.50;64.00;;;;;;5049865;28;20065;-73
2022/03/10 09:31:30;;;;;;;21.02;12.57;;;9.60;62.90;;;;;;5049733;28;20028;-73
2022/03/10 09:33:55;;;;;;;22.52;12.52;;;9.60;61.80;;;;;;5051190;28;20082;-74
2022/03/10 09:36:21;;;;;;;18.25;12.93;;;9.70;62.00;;;;;;5051429;28;20090;-73
2022/03/10 09:38:47;;;;;;;18.30;12.40;;;9.70;60.40;;;;;;5054320;28;20044;-73
2022/03/10 09:41:12;;;;;;;18.70;12.35;;;9.70;60.50;;;;;;5055507;28;20064;-73
2022/03/10 09:43:39;;;;;;;19.30;12.48;;;9.70;60.50;;;;;;5054938;28;20040;-73
2022/03/10 09:46:11;;;;;;;23.13;13.63;;;9.70;60.20;;;;;;5053127;28;20067;-73
2022/03/10 09:48:39;;;;;;;17.13;12.10;;;9.70;59.90;;;;;;5054422;28;20102;-72
2022/03/10 09:51:05;;;;;;;21.15;12.90;;;9.80;59.50;;;;;;5055398;28;20044;-72
2022/03/10 09:53:31;;;;;;;18.10;12.23;;;9.80;59.30;;;;;;5055042;28;20033;-72
2022/03/10 09:55:58;;;;;;;20.38;13.23;;;9.90;59.40;;;;;;5054951;28;20426;-73
2022/03/10 09:58:23;;;;;;;16.52;12.40;;;9.90;59.40;;;;;;5070475;28;20094;-72
2022/03/10 10:00:49;;;;;;;19.02;12.25;;;9.90;59.60;;;;;;5054448;28;20037;-72
2022/03/10 10:03:15;;;;;;;19.30;11.63;;;9.90;58.20;;;;;;5053254;28;20131;-73
2022/03/10 10:05:41;;;;;;;18.50;11.70;;;10.00;58.40;;;;;;5052697;28;20048;-72
2022/03/10 10:08:09;;;;;;;18.80;12.10;;;10.10;58.50;;;;;;5052815;28;20029;-72
2022/03/10 10:10:37;;;;;;;17.90;12.43;;;10.10;57.80;;;;;;5053232;28;20632;-74
2022/03/10 10:13:06;;;;;;;18.02;12.00;;;10.20;57.90;;;;;;5052751;28;20124;-74
2022/03/10 10:15:42;;;;;;;17.85;12.18;;;10.30;57.50;;;;;;5052509;28;20105;-72
2022/03/10 10:18:14;;;;;;;18.77;12.38;;;10.20;57.30;;;;;;5053094;28;20437;-73
2022/03/10 10:20:47;;;;;;;17.75;12.27;;;10.30;56.00;;;;;;5055112;28;20033;-73
2022/03/10 10:23:27;;;;;;;16.48;12.75;;;10.40;56.30;;;;;;5055964;28;20113;-73
2022/03/10 10:26:01;;;;;;;16.35;11.93;;;10.50;56.90;;;;;;5052527;28;20066;-73
2022/03/10 10:28:35;;;;;;;28.73;11.85;;;10.50;56.60;;;;;;5054104;28;20462;-72
2022/03/10 10:31:04;;;;;;;18.70;12.65;;;10.60;56.00;;;;;;5052742;28;20028;-73
2022/03/10 10:33:32;;;;;;;14.95;11.70;;;10.60;55.90;;;;;;5053748;28;20403;-73
2022/03/10 10:36:15;;;;;;;15.40;11.48;;;10.70;55.70;;;;;;5053581;28;20496;-73
2022/03/10 10:38:43;;;;;;;16.60;12.15;;;10.90;55.90;;;;;;5054331;28;20076;-73
2022/03/10 10:41:16;;;;;;;20.92;13.50;;;10.90;54.70;;;;;;5053199;28;20052;-73
2022/03/10 10:43:43;;;;;;;18.95;12.90;;;11.00;54.40;;;;;;5053837;28;20045;-72
2022/03/10 10:46:21;;;;;;;19.25;12.52;;;11.10;54.20;;;;;;5053208;28;20049;-73
2022/03/10 10:48:47;;;;;;;16.98;11.95;;;11.20;54.10;;;;;;5051527;28;20041;-73
2022/03/10 10:51:13;;;;;;;16.52;11.32;;;11.30;54.10;;;;;;5052335;28;20044;-72
2022/03/10 10:53:40;;;;;;;17.05;12.05;;;11.30;52.90;;;;;;5052667;28;20041;-72
2022/03/10 10:56:06;;;;;;;17.88;11.95;;;11.30;52.90;;;;;;5053641;28;20107;-73
2022/03/10 10:58:32;;;;;;;18.42;12.65;;;11.40;52.90;;;;;;5052345;28;20052;-71
2022/03/10 11:00:57;;;;;;;15.73;10.90;;;11.40;52.10;;;;;;5052190;28;20577;-72
2022/03/10 11:03:31;;;;;;;18.15;12.27;;;11.40;52.00;;;;;;5052612;28;20041;-72
2022/03/10 11:05:58;;;;;;;17.83;11.65;;;11.50;50.70;;;;;;5052250;28;20053;-71
2022/03/10 11:08:25;;;;;;;17.45;11.95;;;11.40;50.60;;;;;;5054202;28;20116;-71
2022/03/10 11:10:52;;;;;;;17.85;12.05;;;11.50;51.50;;;;;;5051663;28;20458;-71
2022/03/10 11:13:19;;;;;;;17.85;11.98;;;11.50;50.90;;;;;;5052005;28;20045;-72
2022/03/10 11:15:45;;;;;;;17.08;11.57;;;11.60;51.00;;;;;;5052695;28;20053;-72
2022/03/10 11:18:13;;;;;;;18.35;12.02;;;11.60;51.60;;;;;;5052054;28;20106;-71
2022/03/10 11:20:40;;;;;;;17.65;13.02;;;11.70;51.10;;;;;;5052142;28;20053;-71
2022/03/10 11:23:27;;;;;;;16.73;12.45;;;11.80;51.60;;;;;;5052091;28;20044;-72
2022/03/10 11:26:04;;;;;;;19.10;12.60;;;11.90;50.70;;;;;;5051769;28;20498;-71
2022/03/10 11:28:31;;;;;;;19.75;12.48;;;11.90;48.70;;;;;;5053333;28;20033;-72
2022/03/10 11:31:00;;;;;;;19.42;12.35;;;11.90;48.80;;;;;;5051922;28;20045;-72
2022/03/10 11:33:34;;;;;;;20.50;13.10;;;12.00;49.80;;;;;;5052776;28;20051;-72
2022/03/10 11:35:59;;;;;;;16.77;12.18;;;12.10;49.90;;;;;;5050899;28;20573;-73
2022/03/10 11:38:59;;;;;;;21.10;13.50;;;12.10;48.70;;;;;;5052549;28;20116;-71
2022/03/10 11:41:41;;;;;;;20.30;13.07;;;12.10;47.30;;;;;;5051430;28;20049;-72
2022/03/10 11:44:07;;;;;;;22.92;13.27;;;12.20;47.70;;;;;;5051463;28;20045;-71
2022/03/10 11:46:33;;;;;;;20.92;14.45;;;12.20;47.30;;;;;;5052438;28;20571;-72
2022/03/10 11:49:05;;;;;;;20.55;13.90;;;12.20;46.70;;;;;;5051348;28;20072;-73
2022/03/10 11:51:52;;;;;;;21.88;12.43;;;12.20;46.30;;;;;;5052496;28;20029;-72
2022/03/10 11:54:19;;;;;;;18.33;12.38;;;12.30;46.70;;;;;;5051364;28;20397;-73
2022/03/10 11:56:56;;;;;;;20.88;12.07;;;12.30;47.00;;;;;;5052196;28;20507;-72
2022/03/10 11:59:47;;;;;;;19.63;13.38;;;12.40;47.00;;;;;;5051669;28;20044;-72
2022/03/10 12:02:30;;;;;;;21.90;13.90;;;12.40;47.20;;;;;;5050675;28;20080;-71
2022/03/10 12:04:57;;;;;;;19.63;13.43;;;12.50;46.90;;;;;;5051996;28;20577;-71
2022/03/10 12:07:27;;;;;;;18.48;12.80;;;12.60;46.60;;;;;;5051320;28;20088;-71
2022/03/10 12:10:08;;;;;;;16.40;12.10;;;12.60;46.30;;;;;;5050753;28;20490;-71
2022/03/10 12:12:39;;;;;;;21.17;14.25;;;12.60;45.80;;;;;;5052108;28;20371;-71
2022/03/10 12:15:23;;;;;;;22.13;13.05;;;12.60;45.20;;;;;;5050332;28;20083;-71
2022/03/10 12:17:55;;;;;;;37.30;15.82;;;12.70;46.40;;;;;;5051750;28;20049;-71
2022/03/10 12:20:21;;;;;;;21.25;13.25;;;12.80;46.80;;;;;;5050111;28;20040;-71
2022/03/10 12:23:10;;;;;;;20.85;13.13;;;12.70;45.70;;;;;;5051853;28;20045;-71
2022/03/10 12:26:12;;;;;;;19.50;13.95;;;12.80;45.30;;;;;;5050281;28;20045;-70
2022/03/10 12:28:39;;;;;;;18.50;12.90;;;12.80;45.20;;;;;;5051443;28;20033;-71
2022/03/10 12:31:06;;;;;;;19.20;13.70;;;12.80;45.90;;;;;;5050074;28;20446;-70
2022/03/10 12:33:34;;;;;;;20.92;13.88;;;12.90;45.20;;;;;;5049748;28;20053;-72
2022/03/10 12:36:01;;;;;;;20.55;13.05;;;12.90;44.90;;;;;;5049997;28;20041;-72
2022/03/10 12:38:46;;;;;;;16.63;12.30;;;13.00;45.10;;;;;;5050315;28;20064;-72
2022/03/10 12:41:14;;;;;;;21.33;13.30;;;13.00;45.30;;;;;;5051550;28;20473;-73